KCVO/CVO METAR and TAF weather

Enter ICAO airport designator
Station Type Date Time Source
KCVO METAR 2022/01/26 12:56 UTC NOAA

KCVO 261256Z AUTO 00000KT 1/4SM FZFG OVC001 M03/M04 A3021 RMK AO2 SLP233 T10331039 FZRANO RVRNO


Station Type Date Time Source
KCVO Decoded METAR 2022/01/26 12:56 UTC NOAA

Corvallis, Corvallis Municipal Airport, OR, United States (KCVO) 44-30N 123-17W
Jan 26, 2022 - 07:56 AM EST / 2022.01.26 1256 UTC
Wind: Calm:0
Visibility: 1/4 mile(s):0
Sky conditions: overcast
Weather: freezing fog
Temperature: 26.1 F (-3.3 C)
Dew Point: 25.0 F (-3.9 C)
Relative Humidity: 95%
Pressure (altimeter): 30.21 in. Hg (1023 hPa)
ob: KCVO 261256Z AUTO 00000KT 1/4SM FZFG OVC001 M03/M04 A3021 RMK AO2 SLP233 T10331039 FZRANO RVRNO
cycle: 13

Station Type Date Time Source
KCVO TAF UTC NOAA

Error!

Example: see airport list